Absarokee, Montana
Current Conditions -  °F | °C
As of 5:53 PM on Saturday 22 Nov 2014 (Local Time) from KBIL Reporting Station
Scattered Clouds Scattered Clouds  
Wind Chill: 33°   Ceiling: Unl
Heat Index: 43°   Visibility: 10mi
Dew Point: 17°   Wind: 25mph
Humidity: 35%   Direction: 270°W
Pressure: 29.48"   Gusts: 35mph
Location:  45.53°N, 109.43°W
Report Text: KBIL 230053Z 27022G30KT 10SM FEW090 SCT220 06/M08 A2948 RMK AO2 PK WND 27031/2358 SLP988 T00611083 $
Loading
Personal Weather Stations






























Interactive Weather Map New forecast layout! Learn more

10-Day Weather Forecast

Advertisements
Track Severe Weather on mobile